Koppie Airport

Jump to: basic info | weather | runways | comments

Related pages: nearby airports | nearby navaids | notams | map

Basic information (top)

Codes: 7IS5
Location: lon 42.121399, lat -88.378098, elev 890 ft / 271 m msl
Status: small_airport

Weather (top)

Current conditions for Dupage Airport 14nm (26km) SSE (rec'd 2014/10/24 15:52Z):

KDPA 241552Z 18003KT 10SM CLR 16/09 A3005 RMK AO2 SLP176 T01560089

Airport forecast for Dupage Airport 14nm (26km) SSE (rec'd 2014/10/24 12:33Z):

TAF KDPA 241131Z 2412/2512 VRB03KT P6SM OVC025 
     FM241600 24007KT P6SM SCT025 SCT250 
     FM250000 22004KT P6SM BKN080 
     FM250300 21006KT 3SM BR BKN015 
     FM250600 24004KT 1SM BR SCT005

Runways (top)

N/S: 2,300 x 100 ft (701 x 30 m) — grass — not lighted

Latest comments (top)

No comments yet for Koppie Airport

More... (top)

See also NOTAMs and nearby airports and navaids, or visit the Koppie Airport page at the main OurAirports website..